createdAt,value
2023-04-04T00:02:14.897Z,5.69
2023-04-04T00:07:19.003Z,5.72
2023-04-04T00:12:24.784Z,5.53
2023-04-04T00:17:29.391Z,5.81
2023-04-04T00:22:36.318Z,5.26
2023-04-04T00:27:40.913Z,5.17
2023-04-04T00:32:45.520Z,5.52
2023-04-04T00:37:50.127Z,5.51
2023-04-04T00:42:55.379Z,4.71
2023-04-04T00:47:59.639Z,3.86
2023-04-04T00:53:05.433Z,3.86
2023-04-04T00:58:08.927Z,5.04
2023-04-04T01:03:12.700Z,5.34
2023-04-04T01:08:24.365Z,5.24
2023-04-04T01:13:30.066Z,3.81
2023-04-04T01:18:35.523Z,3.84
2023-04-04T01:24:01.194Z,4.49
2023-04-04T01:29:15.856Z,4.89
2023-04-04T01:34:28.977Z,4.27
2023-04-04T01:39:37.010Z,4.50
2023-04-04T01:44:41.692Z,4.78
2023-04-04T01:49:44.549Z,4.64
2023-04-04T01:54:49.630Z,4.24
2023-04-04T01:59:54.415Z,4.59
2023-04-04T02:04:57.142Z,4.41
2023-04-04T02:09:59.889Z,4.22
2023-04-04T02:15:04.193Z,4.34
2023-04-04T02:20:08.258Z,4.79
2023-04-04T02:25:10.918Z,4.58
2023-04-04T02:30:16.172Z,4.30
2023-04-04T02:35:19.553Z,4.29
2023-04-04T02:40:22.461Z,4.35
2023-04-04T02:45:26.670Z,3.88
2023-04-04T02:50:39.222Z,2.79
2023-04-04T02:55:43.260Z,3.51
2023-04-04T03:00:49.094Z,3.44
2023-04-04T03:05:52.759Z,4.02
2023-04-04T03:10:59.269Z,4.10
2023-04-04T03:16:07.540Z,4.26
2023-04-04T03:21:21.554Z,3.74
2023-04-04T03:26:24.559Z,4.20
2023-04-04T03:31:28.626Z,4.18
2023-04-04T03:36:31.615Z,3.49
2023-04-04T03:41:34.204Z,3.77
2023-04-04T03:46:38.157Z,4.04
2023-04-04T03:51:40.825Z,2.84
2023-04-04T03:56:43.531Z,3.67
2023-04-04T04:01:47.490Z,3.74
2023-04-04T04:06:50.120Z,3.61
2023-04-04T04:12:00.659Z,3.97
2023-04-04T04:17:24.632Z,3.84
2023-04-04T04:22:48.149Z,3.98
2023-04-04T04:28:12.302Z,3.96
2023-04-04T04:33:36.506Z,3.85
2023-04-04T04:39:00.609Z,3.96
2023-04-04T04:44:26.948Z,3.92
2023-04-04T04:49:52.833Z,3.61
2023-04-04T04:55:24.538Z,3.47
2023-04-04T05:00:38.733Z,3.84
2023-04-04T05:05:47.809Z,3.62
2023-04-04T05:10:53.082Z,3.39
2023-04-04T05:15:56.762Z,3.84
2023-04-04T05:21:02.495Z,2.75
2023-04-04T05:26:06.580Z,3.35
2023-04-04T05:31:14.823Z,3.57
2023-04-04T05:36:19.223Z,3.24
2023-04-04T05:41:30.235Z,3.71
2023-04-04T05:46:38.891Z,3.45
2023-04-04T05:51:46.713Z,3.31
2023-04-04T05:56:52.228Z,3.89
2023-04-04T06:02:21.099Z,3.77
2023-04-04T06:07:30.883Z,3.78
2023-04-04T06:12:33.558Z,3.91
2023-04-04T06:17:36.710Z,3.86
2023-04-04T06:22:41.729Z,3.81
2023-04-04T06:27:44.598Z,4.03
2023-04-04T06:32:48.218Z,4.00
2023-04-04T06:37:57.611Z,4.01
2023-04-04T06:43:02.294Z,4.48
2023-04-04T06:48:17.377Z,4.61
2023-04-04T06:53:24.144Z,3.81
2023-04-04T06:58:26.829Z,4.31
2023-04-04T07:03:29.573Z,4.83
2023-04-04T07:08:36.951Z,4.77
2023-04-04T07:13:39.857Z,4.80
2023-04-04T07:18:42.613Z,5.07
2023-04-04T07:23:46.993Z,5.37
2023-04-04T07:28:50.127Z,4.95
2023-04-04T07:33:53.847Z,5.03
2023-04-04T07:38:58.110Z,5.24
2023-04-04T07:44:00.830Z,5.34
2023-04-04T07:49:03.732Z,5.86
2023-04-04T07:54:08.289Z,5.81
2023-04-04T07:59:12.023Z,5.96
2023-04-04T08:04:18.192Z,6.09
2023-04-04T08:09:22.249Z,5.86
2023-04-04T08:14:24.849Z,6.48
2023-04-04T08:19:27.515Z,6.58
2023-04-04T08:24:32.040Z,5.56
2023-04-04T08:29:35.489Z,6.34
2023-04-04T08:34:38.339Z,6.90
2023-04-04T08:39:42.761Z,7.03
2023-04-04T08:44:49.675Z,7.10
2023-04-04T08:49:54.602Z,5.98
2023-04-04T08:55:02.192Z,6.94
2023-04-04T09:00:06.643Z,6.75
2023-04-04T09:05:10.698Z,6.09
2023-04-04T09:10:14.883Z,7.13
2023-04-04T09:15:17.947Z,7.40
2023-04-04T09:20:37.571Z,7.49
2023-04-04T09:30:56.436Z,7.61
2023-04-04T09:36:00.700Z,7.68
2023-04-04T09:41:07.829Z,7.62
2023-04-04T09:46:12.548Z,7.64
2023-04-04T09:51:15.127Z,7.64
2023-04-04T09:56:20.968Z,7.80
2023-04-04T10:01:25.608Z,7.86
2023-04-04T10:06:28.699Z,8.25
2023-04-04T10:11:34.071Z,8.46
2023-04-04T10:16:37.004Z,8.48
2023-04-04T10:21:40.162Z,8.28
2023-04-04T10:26:44.172Z,7.72
2023-04-04T10:31:49.989Z,8.47
2023-04-04T10:36:58.748Z,8.34
2023-04-04T10:42:06.625Z,8.50
2023-04-04T10:47:16.020Z,8.64
2023-04-04T10:52:20.909Z,8.65
2023-04-04T10:57:28.241Z,8.64
2023-04-04T11:02:48.265Z,8.56
2023-04-04T11:08:08.132Z,9.11
2023-04-04T11:13:17.011Z,9.02
2023-04-04T11:18:32.060Z,9.04
2023-04-04T11:24:16.581Z,9.73
2023-04-04T11:29:54.072Z,9.58
2023-04-04T11:57:07.304Z,10.59
2023-04-04T12:02:13.495Z,10.40
2023-04-04T12:07:18.688Z,10.94
2023-04-04T12:12:38.693Z,11.31
2023-04-04T12:17:42.068Z,11.49
2023-04-04T12:22:45.579Z,11.65
2023-04-04T12:27:50.748Z,11.95
2023-04-04T12:32:53.604Z,11.96
2023-04-04T12:38:01.852Z,12.34
2023-04-04T12:43:07.413Z,12.06
2023-04-04T12:48:14.205Z,12.20
2023-04-04T12:58:37.168Z,13.21
2023-04-04T13:03:45.327Z,13.08
2023-04-04T13:08:55.157Z,12.56
2023-04-04T13:14:06.445Z,13.73
2023-04-04T13:19:09.152Z,13.73
2023-04-04T13:24:11.851Z,13.99
2023-04-04T13:29:15.953Z,14.31
2023-04-04T13:34:19.862Z,14.41
2023-04-04T13:39:22.563Z,14.77
2023-04-04T13:44:27.332Z,15.14
2023-04-04T13:49:33.125Z,14.62
2023-04-04T13:54:36.817Z,14.76
2023-04-04T13:59:40.940Z,14.02
2023-04-04T14:04:43.573Z,14.76
2023-04-04T14:09:46.800Z,14.62
2023-04-04T14:14:50.983Z,14.91
2023-04-04T14:19:53.846Z,14.68
2023-04-04T14:24:56.494Z,14.24
2023-04-04T14:30:00.619Z,13.92
2023-04-04T14:35:03.427Z,14.23
2023-04-04T14:40:07.336Z,14.36
2023-04-04T14:45:12.628Z,13.91
2023-04-04T14:50:15.403Z,13.57
2023-04-04T14:55:21.042Z,14.10
2023-04-04T15:00:25.232Z,14.08
2023-04-04T15:05:31.026Z,14.39
2023-04-04T15:10:33.750Z,14.22
2023-04-04T15:37:41.434Z,12.56
2023-04-04T15:42:46.213Z,12.84
2023-04-04T15:47:48.958Z,13.05
2023-04-04T15:52:52.904Z,13.18
2023-04-04T15:57:55.785Z,12.97
2023-04-04T16:02:59.149Z,12.72
2023-04-04T16:08:06.497Z,12.71
2023-04-04T16:13:09.039Z,12.67
2023-04-04T16:18:11.620Z,12.67
2023-04-04T16:23:15.542Z,12.46
2023-04-04T16:28:18.352Z,12.53
2023-04-04T16:33:23.886Z,12.64
2023-04-04T16:38:28.027Z,12.65
2023-04-04T16:43:36.754Z,12.24
2023-04-04T16:48:39.454Z,12.18
2023-04-04T16:53:43.414Z,12.09
2023-04-04T16:58:46.658Z,11.94
2023-04-04T17:03:49.390Z,11.76
2023-04-04T17:08:53.408Z,11.56
2023-04-04T17:13:55.971Z,11.54
2023-04-04T17:18:58.489Z,11.48
2023-04-04T17:24:02.452Z,11.26
2023-04-04T17:29:05.348Z,11.22
2023-04-04T17:34:07.888Z,11.14
2023-04-04T17:39:11.749Z,11.00
2023-04-04T17:44:14.552Z,10.95
2023-04-04T17:49:23.674Z,10.80
2023-04-04T17:54:29.530Z,10.73
2023-04-04T17:59:32.161Z,10.69
2023-04-04T18:04:34.906Z,10.62
2023-04-04T18:09:39.225Z,10.62
2023-04-04T18:14:41.880Z,10.49
2023-04-04T18:19:44.415Z,10.35
2023-04-04T18:24:48.828Z,10.29
2023-04-04T18:29:51.415Z,10.19
2023-04-04T18:34:53.946Z,10.19
2023-04-04T18:39:57.830Z,10.13
2023-04-04T18:45:02.272Z,10.02
2023-04-04T18:50:05.608Z,9.95
2023-04-04T18:55:11.410Z,9.95
2023-04-04T19:00:16.423Z,9.93
2023-04-04T19:05:23.806Z,9.89
2023-04-04T19:10:28.405Z,9.88
2023-04-04T19:15:31.931Z,9.19
2023-04-04T19:20:34.722Z,9.80
2023-04-04T19:25:39.088Z,9.76
2023-04-04T19:30:44.156Z,9.75
2023-04-04T19:35:53.328Z,9.77
2023-04-04T19:40:59.869Z,9.66
2023-04-04T19:46:09.458Z,9.61
2023-04-04T19:51:33.646Z,9.54
2023-04-04T19:56:38.388Z,9.35
2023-04-04T20:01:47.491Z,9.44
2023-04-04T20:07:01.191Z,9.44
2023-04-04T20:12:09.246Z,9.34
2023-04-04T20:17:11.970Z,9.36
2023-04-04T20:22:16.235Z,9.32
2023-04-04T20:27:26.568Z,9.23
2023-04-04T20:32:29.584Z,9.15
2023-04-04T20:37:32.378Z,9.14
2023-04-04T20:42:40.957Z,9.08
2023-04-04T20:47:46.712Z,9.06
2023-04-04T20:52:51.299Z,8.99
2023-04-04T20:57:57.919Z,9.04
2023-04-04T21:03:02.712Z,9.01
2023-04-04T21:08:29.619Z,8.58
2023-04-04T21:13:36.559Z,8.98
2023-04-04T21:18:40.442Z,8.95
2023-04-04T21:23:49.174Z,8.97
2023-04-04T21:28:53.624Z,8.82
2023-04-04T21:33:58.092Z,8.86
2023-04-04T21:39:02.062Z,8.92
2023-04-04T21:44:07.868Z,8.75
2023-04-04T21:49:10.981Z,8.69
2023-04-04T21:54:14.267Z,8.66
2023-04-04T21:59:18.619Z,8.74
2023-04-04T22:04:21.256Z,8.62
2023-04-04T22:09:25.741Z,8.36
2023-04-04T22:14:29.885Z,8.20
2023-04-04T22:19:43.875Z,8.26
2023-04-04T22:24:46.418Z,8.26
2023-04-04T22:29:50.321Z,8.16
2023-04-04T22:34:53.107Z,7.80
2023-04-04T22:39:55.827Z,7.83
2023-04-04T22:44:59.709Z,7.80
2023-04-04T22:50:04.625Z,7.92
2023-04-04T22:55:07.713Z,7.36
2023-04-04T23:00:14.470Z,7.66
2023-04-04T23:05:18.588Z,7.70
2023-04-04T23:10:22.268Z,7.70
2023-04-04T23:15:29.974Z,7.42
2023-04-04T23:20:33.284Z,7.42
2023-04-04T23:25:35.844Z,7.14
2023-04-04T23:30:41.384Z,7.31
2023-04-04T23:35:44.219Z,7.25
2023-04-04T23:40:46.777Z,7.17
2023-04-04T23:45:51.372Z,7.12
2023-04-04T23:50:56.730Z,7.10
2023-04-04T23:55:59.396Z,7.07
